createdAt,value
2018-07-06T00:01:47.055Z,100872.38
2018-07-06T00:04:27.835Z,100875.37
2018-07-06T00:07:07.485Z,100877.94
2018-07-06T00:09:48.321Z,100882.50
2018-07-06T00:12:28.590Z,100881.68
2018-07-06T00:15:08.178Z,100885.47
2018-07-06T00:17:49.054Z,100886.30
2018-07-06T00:20:28.706Z,100885.70
2018-07-06T00:23:09.462Z,100881.54
2018-07-06T00:25:52.672Z,100876.27
2018-07-06T00:28:32.746Z,100878.45
2018-07-06T00:31:12.936Z,100866.94
2018-07-06T00:33:52.665Z,100868.50
2018-07-06T00:36:33.386Z,100859.64
2018-07-06T00:39:12.941Z,100861.33
2018-07-06T00:41:53.789Z,100861.70
2018-07-06T00:44:33.985Z,100854.45
2018-07-06T00:47:14.200Z,100852.17
2018-07-06T00:49:54.377Z,100852.64
2018-07-06T00:52:33.971Z,100855.48
2018-07-06T00:55:14.150Z,100849.91
2018-07-06T00:57:54.452Z,100846.18
2018-07-06T01:00:35.149Z,100848.42
2018-07-06T01:03:15.356Z,100842.10
2018-07-06T01:05:55.540Z,100848.90
2018-07-06T01:08:35.772Z,100848.03
2018-07-06T01:11:15.327Z,100855.20
2018-07-06T01:13:56.042Z,100849.16
2018-07-06T01:16:35.702Z,100850.52
2018-07-06T01:19:16.456Z,100844.66
2018-07-06T01:21:56.642Z,100848.11
2018-07-06T01:24:36.733Z,100849.89
2018-07-06T01:27:16.289Z,100844.59
2018-07-06T01:29:56.466Z,100837.90
2018-07-06T01:32:37.265Z,100840.75
2018-07-06T01:35:17.604Z,100843.66
2018-07-06T01:37:57.767Z,100841.88
2018-07-06T01:40:38.031Z,100841.89
2018-07-06T01:43:18.029Z,100844.21
2018-07-06T01:46:04.468Z,100843.86
2018-07-06T01:48:44.679Z,100848.30
2018-07-06T01:51:24.895Z,100845.34
2018-07-06T01:54:05.073Z,100847.41
2018-07-06T01:56:45.270Z,100843.94
2018-07-06T01:59:25.406Z,100847.61
2018-07-06T02:02:05.026Z,100843.69
2018-07-06T02:04:45.835Z,100851.70
2018-07-06T02:07:25.461Z,100848.38
2018-07-06T02:10:06.226Z,100855.52
2018-07-06T02:12:46.314Z,100856.00
2018-07-06T02:15:26.539Z,100851.20
2018-07-06T02:18:06.173Z,100848.94
2018-07-06T02:20:46.817Z,100849.16
2018-07-06T02:23:27.036Z,100854.34
2018-07-06T02:26:06.557Z,100851.81
2018-07-06T02:28:47.355Z,100852.79
2018-07-06T02:31:27.622Z,100846.83
2018-07-06T02:34:07.747Z,100841.95
2018-07-06T02:36:48.048Z,100842.89
2018-07-06T02:39:27.655Z,100849.80
2018-07-06T02:42:07.853Z,100846.08
2018-07-06T02:44:48.558Z,100849.38
2018-07-06T02:47:28.671Z,100851.62
2018-07-06T02:50:08.259Z,100866.98
2018-07-06T02:52:49.056Z,100851.72
2018-07-06T02:55:29.305Z,100857.02
2018-07-06T02:58:09.390Z,100854.20
2018-07-06T03:00:55.153Z,100852.44
2018-07-06T03:03:35.960Z,100852.00
2018-07-06T03:06:16.144Z,100848.14
2018-07-06T03:08:56.397Z,100851.14
2018-07-06T03:11:36.053Z,100847.52
2018-07-06T03:14:16.318Z,100847.06
2018-07-06T03:16:57.253Z,100848.25
2018-07-06T03:19:37.491Z,100846.42
2018-07-06T03:22:17.422Z,100848.53
2018-07-06T03:24:57.368Z,100849.42
2018-07-06T03:27:37.617Z,100851.66
2018-07-06T03:30:17.814Z,100859.73
2018-07-06T03:32:57.960Z,100862.04
2018-07-06T03:35:38.116Z,100858.88
2018-07-06T03:38:18.429Z,100849.73
2018-07-06T03:40:58.638Z,100849.75
2018-07-06T03:43:39.415Z,100863.88
2018-07-06T03:46:18.965Z,100856.55
2018-07-06T03:48:59.185Z,100860.19
2018-07-06T03:51:39.959Z,100850.83
2018-07-06T03:54:19.535Z,100858.30
2018-07-06T03:56:59.775Z,100856.01
2018-07-06T03:59:40.518Z,100860.59
2018-07-06T04:02:20.356Z,100863.88
2018-07-06T04:05:00.575Z,100861.45
2018-07-06T04:07:41.098Z,100854.90
2018-07-06T04:10:21.310Z,100865.86
2018-07-06T04:13:01.468Z,100873.03
2018-07-06T04:15:41.256Z,100863.55
2018-07-06T04:18:21.936Z,100864.12
2018-07-06T04:21:02.114Z,100861.09
2018-07-06T04:23:42.156Z,100865.77
2018-07-06T04:26:22.253Z,100861.56
2018-07-06T04:29:02.434Z,100861.57
2018-07-06T04:31:42.423Z,100861.38
2018-07-06T04:34:22.404Z,100860.17
2018-07-06T04:37:02.748Z,100863.05
2018-07-06T04:39:43.479Z,100864.14
2018-07-06T04:42:22.969Z,100866.85
2018-07-06T04:45:03.697Z,100872.66
2018-07-06T04:47:50.518Z,100871.52
2018-07-06T04:50:30.566Z,100862.03
2018-07-06T04:53:10.818Z,100866.27
2018-07-06T04:55:50.422Z,100863.23
2018-07-06T04:58:31.077Z,100865.45
2018-07-06T05:01:11.176Z,100870.23
2018-07-06T05:03:51.163Z,100861.45
2018-07-06T05:06:31.789Z,100867.48
2018-07-06T05:09:11.959Z,100859.74
2018-07-06T05:11:51.599Z,100854.74
2018-07-06T05:14:31.809Z,100858.81
2018-07-06T05:20:04.152Z,100876.91
2018-07-06T05:22:44.328Z,100870.52
2018-07-06T05:25:25.103Z,100868.89
2018-07-06T05:28:05.292Z,100865.10
2018-07-06T05:30:44.878Z,100872.13
2018-07-06T05:33:25.520Z,100869.78
2018-07-06T05:36:05.062Z,100879.19
2018-07-06T05:38:45.114Z,100877.05
2018-07-06T05:41:26.096Z,100880.66
2018-07-06T05:44:05.707Z,100878.48
2018-07-06T05:46:46.551Z,100886.21
2018-07-06T05:49:26.191Z,100893.01
2018-07-06T05:52:06.938Z,100887.92
2018-07-06T05:54:47.077Z,100896.98
2018-07-06T05:57:26.534Z,100885.45
2018-07-06T06:00:07.169Z,100892.94
2018-07-06T06:02:46.672Z,100886.84
2018-07-06T06:05:27.050Z,100894.85
2018-07-06T06:07:54.823Z,100912.66
2018-07-06T06:10:23.018Z,100903.45
2018-07-06T06:12:51.918Z,100898.13
2018-07-06T06:15:19.780Z,100892.42
2018-07-06T06:17:47.977Z,100899.58
2018-07-06T06:20:16.354Z,100915.05
2018-07-06T06:22:44.601Z,100897.73
2018-07-06T06:25:13.488Z,100911.73
2018-07-06T06:27:41.218Z,100912.97
2018-07-06T06:30:09.536Z,100915.10
2018-07-06T06:32:37.871Z,100900.63
2018-07-06T06:35:06.784Z,100903.84
2018-07-06T06:37:35.127Z,100906.11
2018-07-06T06:40:03.096Z,100912.78
2018-07-06T06:42:32.072Z,100923.73
2018-07-06T06:44:59.608Z,100910.29
2018-07-06T06:47:27.948Z,100914.47
2018-07-06T06:49:56.288Z,100919.43
2018-07-06T06:52:25.150Z,100920.15
2018-07-06T06:54:53.530Z,100926.40
2018-07-06T06:57:23.104Z,100916.45
2018-07-06T06:59:51.231Z,100920.91
2018-07-06T07:02:19.538Z,100927.70
2018-07-06T07:04:47.873Z,100921.28
2018-07-06T07:07:19.441Z,100921.85
2018-07-06T07:09:48.469Z,100925.55
2018-07-06T07:12:16.527Z,100933.54
2018-07-06T07:14:44.353Z,100939.94
2018-07-06T07:17:12.425Z,100935.55
2018-07-06T07:19:40.828Z,100938.16
2018-07-06T07:22:11.563Z,100944.02
2018-07-06T07:24:39.310Z,100942.95
2018-07-06T07:27:09.416Z,100937.66
2018-07-06T07:32:12.179Z,100939.36
2018-07-06T07:34:40.753Z,100945.25
2018-07-06T07:37:08.679Z,100959.80
2018-07-06T07:39:38.717Z,100960.83
2018-07-06T07:42:07.605Z,100954.11
2018-07-06T07:44:36.810Z,100954.96
2018-07-06T07:47:09.995Z,100961.28
2018-07-06T07:49:43.447Z,100961.41
2018-07-06T07:52:22.199Z,100969.15
2018-07-06T07:54:51.518Z,100962.67
2018-07-06T07:57:20.505Z,100957.91
2018-07-06T07:59:56.023Z,100969.50
2018-07-06T08:02:21.122Z,100959.86
2018-07-06T08:04:50.975Z,100970.38
2018-07-06T08:07:17.954Z,100966.23
2018-07-06T08:09:54.833Z,100971.65
2018-07-06T08:15:07.266Z,100969.93
2018-07-06T08:17:39.575Z,100974.00
2018-07-06T08:20:20.615Z,100965.08
2018-07-06T08:22:38.154Z,100971.68
2018-07-06T08:27:46.290Z,100965.92
2018-07-06T08:30:10.599Z,100973.70
2018-07-06T08:32:35.316Z,100978.73
2018-07-06T08:35:22.665Z,100983.80
2018-07-06T08:43:59.081Z,100976.61
2018-07-06T08:46:05.100Z,100966.92
2018-07-06T08:48:28.790Z,100975.64
2018-07-06T08:53:50.611Z,100984.66
2018-07-06T08:56:24.908Z,100993.59
2018-07-06T08:58:56.386Z,100981.22
2018-07-06T09:01:27.839Z,100994.38
2018-07-06T09:06:27.164Z,100992.08
2018-07-06T09:08:54.001Z,101002.63
2018-07-06T09:11:25.013Z,100995.00
2018-07-06T09:14:01.864Z,101016.52
2018-07-06T09:18:53.674Z,100998.07
2018-07-06T09:21:24.845Z,100999.70
2018-07-06T09:23:54.851Z,100997.18
2018-07-06T09:26:33.134Z,100997.67
2018-07-06T09:28:55.901Z,101005.04
2018-07-06T09:31:24.578Z,101005.12
2018-07-06T09:33:52.958Z,101011.74
2018-07-06T09:36:20.998Z,101004.83
2018-07-06T09:38:49.518Z,101009.89
2018-07-06T09:41:19.463Z,101008.08
2018-07-06T09:43:50.165Z,101019.17
2018-07-06T09:46:18.701Z,101009.37
2018-07-06T09:51:50.684Z,101018.88
2018-07-06T09:54:17.933Z,101021.03
2018-07-06T09:56:47.414Z,101026.11
2018-07-06T09:59:17.168Z,101022.33
2018-07-06T10:01:45.266Z,101021.20
2018-07-06T10:04:15.018Z,101024.06
2018-07-06T10:06:42.746Z,101014.86
2018-07-06T10:09:11.655Z,101011.89
2018-07-06T10:11:39.991Z,101021.07
2018-07-06T10:14:07.733Z,101030.78
2018-07-06T10:16:36.625Z,101033.01
2018-07-06T10:19:04.378Z,101035.93
2018-07-06T10:21:32.923Z,101038.58
2018-07-06T10:24:01.598Z,101033.78
2018-07-06T10:26:29.936Z,101035.77
2018-07-06T10:28:57.672Z,101024.83
2018-07-06T10:31:26.588Z,101029.76
2018-07-06T10:33:55.941Z,101030.48
2018-07-06T10:36:23.292Z,101028.16
2018-07-06T10:38:53.105Z,101037.91
2018-07-06T10:41:21.703Z,101045.55
2018-07-06T10:43:52.501Z,101034.12
2018-07-06T10:46:21.879Z,101038.56
2018-07-06T10:48:57.727Z,101045.80
2018-07-06T10:51:27.267Z,101050.33
2018-07-06T10:53:57.753Z,101044.81
2018-07-06T10:56:26.695Z,101052.84
2018-07-06T10:59:03.304Z,101036.33
2018-07-06T11:01:32.579Z,101051.03
2018-07-06T11:04:02.150Z,101045.11
2018-07-06T11:06:32.008Z,101046.27
2018-07-06T11:09:02.316Z,101044.58
2018-07-06T11:11:32.235Z,101041.95
2018-07-06T11:14:01.489Z,101055.77
2018-07-06T11:16:32.001Z,101051.28
2018-07-06T11:18:59.773Z,101053.05
2018-07-06T11:21:29.343Z,101052.34
2018-07-06T11:24:03.268Z,101049.26
2018-07-06T11:26:32.481Z,101045.11
2018-07-06T11:29:02.486Z,101041.41
2018-07-06T11:31:30.977Z,101055.34
2018-07-06T11:34:04.024Z,101046.90
2018-07-06T11:36:31.403Z,101038.41
2018-07-06T11:38:59.726Z,101049.41
2018-07-06T11:41:33.576Z,101043.30
2018-07-06T11:44:01.728Z,101045.11
2018-07-06T11:46:33.239Z,101051.45
2018-07-06T11:49:02.046Z,101049.52
2018-07-06T11:51:34.968Z,101042.38
2018-07-06T11:54:03.320Z,101053.33
2018-07-06T11:56:35.915Z,101050.92
2018-07-06T11:59:02.765Z,101052.04
2018-07-06T12:01:35.523Z,101047.97
2018-07-06T12:04:05.775Z,101051.33
2018-07-06T12:06:35.461Z,101054.70
2018-07-06T12:09:05.982Z,101052.98
2018-07-06T12:11:35.527Z,101055.50
2018-07-06T12:14:03.996Z,101053.87
2018-07-06T12:16:31.347Z,101068.97
2018-07-06T12:19:02.391Z,101054.27
2018-07-06T12:21:30.129Z,101054.55
2018-07-06T12:23:59.469Z,101053.98
2018-07-06T12:26:27.584Z,101059.16
2018-07-06T12:28:56.758Z,101067.16
2018-07-06T12:31:26.146Z,101056.25
2018-07-06T12:33:54.510Z,101053.69
2018-07-06T12:36:23.572Z,101049.68
2018-07-06T12:38:51.837Z,101055.39
2018-07-06T12:41:21.124Z,101059.08
2018-07-06T12:43:49.616Z,101052.14
2018-07-06T12:46:18.056Z,101059.85
2018-07-06T12:48:47.379Z,101064.13
2018-07-06T12:51:16.198Z,101066.50
2018-07-06T12:53:52.121Z,101068.03
2018-07-06T12:56:25.945Z,101065.88
2018-07-06T12:58:58.005Z,101073.31
2018-07-06T13:01:20.508Z,101067.66
2018-07-06T13:03:49.335Z,101074.30
2018-07-06T13:06:20.470Z,101076.51
2018-07-06T13:08:53.581Z,101081.06
2018-07-06T13:11:22.271Z,101077.66
2018-07-06T13:13:52.566Z,101092.80
2018-07-06T13:16:22.114Z,101094.03
2018-07-06T13:18:54.071Z,101086.68
2018-07-06T13:21:22.830Z,101089.95
2018-07-06T13:23:52.103Z,101081.41
2018-07-06T13:26:21.703Z,101090.61
2018-07-06T13:28:50.672Z,101095.52
2018-07-06T13:31:18.412Z,101096.06
2018-07-06T13:33:46.940Z,101092.25
2018-07-06T13:36:15.635Z,101095.94
2018-07-06T13:38:43.963Z,101099.58
2018-07-06T13:41:12.305Z,101101.84
2018-07-06T13:43:41.793Z,101104.94
2018-07-06T13:46:11.959Z,101096.59
2018-07-06T13:48:43.713Z,101103.61
2018-07-06T13:51:11.590Z,101098.34
2018-07-06T13:53:41.242Z,101100.45
2018-07-06T13:56:09.797Z,101111.31
2018-07-06T13:58:59.215Z,101102.69
2018-07-06T14:03:59.557Z,101102.87
2018-07-06T14:06:31.552Z,101103.98
2018-07-06T14:09:00.821Z,101090.66
2018-07-06T14:11:30.692Z,101103.38
2018-07-06T14:14:06.425Z,101095.71
2018-07-06T14:16:31.011Z,101098.84
2018-07-06T14:19:07.242Z,101105.44
2018-07-06T14:21:43.044Z,101100.94
2018-07-06T14:24:15.706Z,101103.12
2018-07-06T14:26:46.448Z,101106.16
2018-07-06T14:29:15.388Z,101109.66
2018-07-06T14:31:54.809Z,101111.91
2018-07-06T14:36:53.519Z,101116.97
2018-07-06T14:39:39.603Z,101119.76
2018-07-06T14:41:56.216Z,101124.50
2018-07-06T14:44:28.418Z,101127.28
2018-07-06T14:47:03.477Z,101119.87
2018-07-06T14:52:26.888Z,101121.78
2018-07-06T14:54:58.423Z,101122.50
2018-07-06T14:57:26.373Z,101120.38
2018-07-06T15:00:02.076Z,101124.50
2018-07-06T15:02:30.204Z,101124.50
2018-07-06T15:04:58.485Z,101136.55
2018-07-06T15:07:27.077Z,101136.54
2018-07-06T15:09:55.437Z,101129.78
2018-07-06T15:12:22.984Z,101136.19
2018-07-06T15:14:52.283Z,101136.83
2018-07-06T15:17:20.829Z,101137.37
2018-07-06T15:19:48.935Z,101138.72
2018-07-06T15:22:18.898Z,101131.80
2018-07-06T15:24:51.833Z,101134.88
2018-07-06T15:27:19.042Z,101131.98
2018-07-06T15:29:46.547Z,101132.22
2018-07-06T15:32:35.325Z,101135.77
2018-07-06T15:35:11.017Z,101144.88
2018-07-06T15:40:35.833Z,101138.92
2018-07-06T15:43:20.723Z,101133.86
2018-07-06T15:45:48.932Z,101134.16
2018-07-06T15:48:17.608Z,101139.20
2018-07-06T15:50:46.263Z,101134.66
2018-07-06T15:53:14.008Z,101136.73
2018-07-06T15:55:44.409Z,101132.88
2018-07-06T15:58:15.825Z,101145.78
2018-07-06T16:00:48.316Z,101142.44
2018-07-06T16:03:15.611Z,101140.38
2018-07-06T16:05:43.949Z,101143.56
2018-07-06T16:08:12.385Z,101146.21
2018-07-06T16:10:41.086Z,101158.84
2018-07-06T16:13:09.723Z,101153.23
2018-07-06T16:15:37.460Z,101143.53
2018-07-06T16:18:06.487Z,101154.65
2018-07-06T16:20:35.838Z,101147.43
2018-07-06T16:23:03.953Z,101147.09
2018-07-06T16:25:33.223Z,101149.58
2018-07-06T16:28:01.587Z,101149.84
2018-07-06T16:30:33.577Z,101156.13
2018-07-06T16:33:03.169Z,101155.16
2018-07-06T16:35:31.285Z,101158.33
2018-07-06T16:37:59.627Z,101153.70
2018-07-06T16:40:27.360Z,101160.30
2018-07-06T16:42:55.677Z,101150.36
2018-07-06T16:45:24.558Z,101153.33
2018-07-06T16:47:52.315Z,101155.62
2018-07-06T16:50:21.196Z,101155.70
2018-07-06T16:52:48.941Z,101150.92
2018-07-06T16:55:17.881Z,101147.58
2018-07-06T16:57:46.424Z,101154.55
2018-07-06T17:00:14.517Z,101156.52
2018-07-06T17:02:43.185Z,101156.53
2018-07-06T17:05:12.457Z,101145.64
2018-07-06T17:07:40.193Z,101146.03
2018-07-06T17:10:09.335Z,101162.16
2018-07-06T17:12:38.015Z,101144.62
2018-07-06T17:15:06.340Z,101149.70
2018-07-06T17:17:34.661Z,101160.30
2018-07-06T17:20:02.975Z,101157.48
2018-07-06T17:22:31.546Z,101154.42
2018-07-06T17:24:59.290Z,101148.60
2018-07-06T17:27:27.628Z,101143.53
2018-07-06T17:29:57.333Z,101171.37
2018-07-06T17:32:24.532Z,101164.91
2018-07-06T17:34:53.751Z,101160.59
2018-07-06T17:37:22.074Z,101161.12
2018-07-06T17:39:50.716Z,101165.02
2018-07-06T17:42:19.689Z,101161.64
2018-07-06T17:44:48.012Z,101155.92
2018-07-06T17:47:16.336Z,101152.98
2018-07-06T17:49:44.091Z,101157.05
2018-07-06T17:52:13.334Z,101148.79
2018-07-06T17:54:41.673Z,101151.78
2018-07-06T17:57:10.088Z,101152.98
2018-07-06T17:59:38.419Z,101143.62
2018-07-06T18:02:06.746Z,101140.72
2018-07-06T18:04:34.667Z,101148.66
2018-07-06T18:07:02.870Z,101142.61
2018-07-06T18:09:34.196Z,101154.05
2018-07-06T18:12:02.482Z,101141.37
2018-07-06T18:14:33.815Z,101152.20
2018-07-06T18:17:03.334Z,101149.59
2018-07-06T18:19:34.854Z,101147.44
2018-07-06T18:22:03.329Z,101147.86
2018-07-06T18:24:41.432Z,101150.91
2018-07-06T18:27:32.323Z,101151.66
2018-07-06T18:29:54.336Z,101152.30
2018-07-06T18:32:22.100Z,101157.93
2018-07-06T18:34:52.391Z,101160.02
2018-07-06T18:37:20.516Z,101159.78
2018-07-06T18:45:32.251Z,101171.66
2018-07-06T18:47:59.980Z,101169.02
2018-07-06T18:50:29.154Z,101173.25
2018-07-06T18:52:57.497Z,101173.42
2018-07-06T18:55:26.281Z,101175.10
2018-07-06T18:57:55.354Z,101167.27
2018-07-06T19:00:24.618Z,101178.55
2018-07-06T19:02:58.828Z,101178.16
2018-07-06T19:05:28.064Z,101185.06
2018-07-06T19:07:57.450Z,101184.53
2018-07-06T19:10:24.169Z,101192.43
2018-07-06T19:12:52.504Z,101198.09
2018-07-06T19:15:21.476Z,101200.28
2018-07-06T19:17:49.841Z,101205.11
2018-07-06T19:20:19.612Z,101206.98
2018-07-06T19:22:47.493Z,101211.22
2018-07-06T19:25:15.661Z,101210.38
2018-07-06T19:27:43.473Z,101216.72
2018-07-06T19:30:12.397Z,101216.88
2018-07-06T19:32:41.705Z,101215.52
2018-07-06T19:35:15.638Z,101224.42
2018-07-06T19:37:44.143Z,101219.73
2018-07-06T19:43:11.680Z,101218.29
2018-07-06T19:45:27.910Z,101223.67
2018-07-06T20:44:43.325Z,101264.72
2018-07-06T20:47:13.628Z,101267.36
2018-07-06T20:49:41.944Z,101273.31
2018-07-06T20:52:11.010Z,101272.09
2018-07-06T20:54:42.546Z,101264.97
2018-07-06T20:57:08.815Z,101264.16
2018-07-06T20:59:36.528Z,101264.59
2018-07-06T21:02:07.517Z,101262.52
2018-07-06T21:04:35.250Z,101268.94
2018-07-06T21:07:06.395Z,101268.86
2018-07-06T21:09:34.861Z,101265.94
2018-07-06T21:12:05.950Z,101258.58
2018-07-06T21:14:34.865Z,101259.73
2018-07-06T21:17:07.162Z,101260.58
2018-07-06T21:19:36.440Z,101260.19
2018-07-06T21:22:05.250Z,101260.11
2018-07-06T21:24:36.167Z,101266.58
2018-07-06T21:27:04.628Z,101263.37
2018-07-06T21:29:33.239Z,101264.55
2018-07-06T21:32:03.339Z,101254.80
2018-07-06T21:34:29.808Z,101257.77
2018-07-06T21:36:58.201Z,101253.77
2018-07-06T21:39:28.533Z,101251.50
2018-07-06T21:41:56.996Z,101253.16
2018-07-06T21:44:25.293Z,101254.06
2018-07-06T21:46:58.386Z,101250.34
2018-07-06T21:49:30.063Z,101248.08
2018-07-06T21:52:00.555Z,101249.47
2018-07-06T21:54:25.960Z,101253.54
2018-07-06T21:56:55.634Z,101251.98
2018-07-06T21:59:25.856Z,101246.12
2018-07-06T22:01:54.110Z,101248.23
2018-07-06T22:04:23.746Z,101252.16
2018-07-06T22:06:52.252Z,101250.72
2018-07-06T22:09:21.590Z,101250.66
2018-07-06T22:11:52.106Z,101250.71
2018-07-06T22:14:26.145Z,101257.60
2018-07-06T22:16:57.937Z,101261.08
2018-07-06T22:19:26.418Z,101260.30
2018-07-06T22:21:58.379Z,101260.64
2018-07-06T22:24:24.811Z,101265.98
2018-07-06T22:26:58.968Z,101272.77
2018-07-06T22:29:29.525Z,101280.39
2018-07-06T22:31:57.480Z,101279.97
2018-07-06T22:34:25.981Z,101277.89
2018-07-06T22:36:58.404Z,101275.61
2018-07-06T22:39:31.098Z,101280.57
2018-07-06T22:41:58.914Z,101275.91
2018-07-06T22:44:26.690Z,101278.94
2018-07-06T22:46:56.910Z,101283.91
2018-07-06T22:49:28.686Z,101285.28
2018-07-06T22:51:58.419Z,101285.55
2018-07-06T22:54:28.229Z,101290.09
2018-07-06T22:56:56.924Z,101289.42
2018-07-06T22:59:26.434Z,101283.44
2018-07-06T23:01:54.892Z,101282.81
2018-07-06T23:07:43.433Z,101284.70
2018-07-06T23:10:19.621Z,101286.34
2018-07-06T23:15:42.757Z,101279.25
2018-07-06T23:18:11.773Z,101276.33
2018-07-06T23:20:42.131Z,101273.03
2018-07-06T23:23:12.583Z,101271.14
2018-07-06T23:25:50.321Z,101269.41
2018-07-06T23:28:19.604Z,101269.20
2018-07-06T23:30:49.232Z,101269.09
2018-07-06T23:33:19.263Z,101271.80
2018-07-06T23:35:48.658Z,101266.84
2018-07-06T23:38:16.099Z,101272.56
2018-07-06T23:40:45.442Z,101270.41
2018-07-06T23:43:15.990Z,101268.24
2018-07-06T23:45:46.211Z,101269.75
2018-07-06T23:48:15.803Z,101271.90
2018-07-06T23:50:43.339Z,101273.33
2018-07-06T23:53:12.102Z,101277.81
2018-07-06T23:55:39.910Z,101271.22
2018-07-06T23:58:10.356Z,101270.05
